Time;durP1;ratioP1;P1;durP2;ratioP2;P2;SDS_P1;SDS_P2;PMS_P1;PMS_P2;Temp;Humidity;BMP_temperature;BMP_pressure;BME280_temperature;BME280_humidity;BME280_pressure;Samples;Min_cycle;Max_cycle;Signal;HPM_P1;HPM_P2
2023/09/24 00:00:15;;;;;;;10.50;6.37;;;;;;;15.09;100.00;98653.25;4469721;32;20153;-89
2023/09/24 00:02:43;;;;;;;7.45;6.40;;;;;;;15.18;100.00;98641.69;4469858;32;20381;-88
2023/09/24 00:05:13;;;;;;;11.15;7.30;;;;;;;15.12;100.00;98644.19;4469343;32;20443;-89
2023/09/24 00:07:40;;;;;;;8.82;6.43;;;;;;;15.13;100.00;98651.13;4469775;32;20097;-88
2023/09/24 00:10:08;;;;;;;10.25;6.62;;;;;;;15.15;100.00;98642.03;4469742;32;20518;-87
2023/09/24 00:12:36;;;;;;;9.07;6.47;;;;;;;15.19;100.00;98650.44;4469439;32;20084;-87
2023/09/24 00:15:03;;;;;;;8.63;6.75;;;;;;;15.19;100.00;98656.53;4471596;32;20104;-88
2023/09/24 00:17:31;;;;;;;7.72;6.75;;;;;;;15.17;100.00;98644.50;4485390;31;20092;-87
2023/09/24 00:19:59;;;;;;;9.15;5.97;;;;;;;15.07;100.00;98636.78;4484933;31;20155;-88
2023/09/24 00:22:30;;;;;;;8.45;6.50;;;;;;;14.96;100.00;98630.06;4485238;31;20083;-88
2023/09/24 00:24:58;;;;;;;9.00;6.87;;;;;;;15.04;100.00;98642.41;4485208;31;20536;-88
2023/09/24 00:27:25;;;;;;;7.62;6.55;;;;;;;15.15;100.00;98642.03;4485154;31;20443;-88
2023/09/24 00:29:53;;;;;;;6.45;5.80;;;;;;;15.13;100.00;98651.94;4484966;31;20386;-88
2023/09/24 00:32:20;;;;;;;9.82;6.30;;;;;;;15.14;100.00;98652.75;4484975;31;20108;-88
2023/09/24 00:34:48;;;;;;;11.52;6.18;;;;;;;15.08;100.00;98641.91;4485098;31;20165;-88
2023/09/24 00:37:16;;;;;;;7.45;5.82;;;;;;;15.23;100.00;98641.19;4485153;31;20122;-88
2023/09/24 00:39:44;;;;;;;6.18;5.55;;;;;;;15.20;100.00;98654.72;4484858;31;20542;-87
2023/09/24 00:42:13;;;;;;;6.55;5.68;;;;;;;15.22;100.00;98672.03;4484940;31;20152;-88
2023/09/24 00:44:41;;;;;;;10.10;5.95;;;;;;;15.21;100.00;98669.56;4484827;31;20139;-88
2023/09/24 00:47:11;;;;;;;5.70;4.93;;;;;;;15.18;100.00;98664.63;4485200;31;20530;-87
2023/09/24 00:49:39;;;;;;;7.93;6.25;;;;;;;15.13;100.00;98666.97;4484820;31;20163;-87
2023/09/24 00:52:07;;;;;;;7.80;5.55;;;;;;;15.16;100.00;98674.53;4484939;31;20088;-88
2023/09/24 00:54:35;;;;;;;10.98;5.37;;;;;;;15.20;100.00;98662.63;4470418;31;20097;-87
2023/09/24 00:57:03;;;;;;;6.65;5.18;;;;;;;15.21;100.00;98664.28;4467845;32;20100;-87
2023/09/24 00:59:30;;;;;;;7.82;5.60;;;;;;;15.17;100.00;98657.69;4467720;32;20219;-87
2023/09/24 01:01:59;;;;;;;10.18;5.62;;;;;;;15.15;100.00;98664.97;4469083;32;20161;-88
2023/09/24 01:04:27;;;;;;;8.23;5.18;;;;;;;15.12;100.00;98655.56;4469029;32;20111;-87
2023/09/24 01:06:56;;;;;;;7.12;5.72;;;;;;;15.11;100.00;98653.09;4468115;32;20108;-86
2023/09/24 01:09:24;;;;;;;10.20;6.10;;;;;;;15.12;100.00;98650.28;4469256;32;20115;-88
2023/09/24 01:11:52;;;;;;;7.55;5.40;;;;;;;15.02;100.00;98645.22;4469061;32;20454;-88
2023/09/24 01:14:21;;;;;;;8.02;6.00;;;;;;;14.98;100.00;98632.53;4468977;32;20100;-87
2023/09/24 01:16:49;;;;;;;11.00;5.87;;;;;;;15.07;100.00;98634.97;4482632;32;20138;-87
2023/09/24 01:19:17;;;;;;;8.18;5.80;;;;;;;14.94;100.00;98632.03;4484430;31;20155;-87
2023/09/24 01:21:45;;;;;;;8.25;5.47;;;;;;;14.88;100.00;98643.25;4484489;31;20104;-88
2023/09/24 01:24:13;;;;;;;7.00;5.03;;;;;;;14.83;100.00;98642.94;4484668;31;20556;-87
2023/09/24 01:26:45;;;;;;;7.70;5.70;;;;;;;14.77;100.00;98643.63;4484514;31;20089;-87
2023/09/24 01:29:14;;;;;;;7.47;5.93;;;;;;;14.70;100.00;98631.09;4484551;31;20148;-87
2023/09/24 01:31:44;;;;;;;7.97;5.57;;;;;;;14.66;100.00;98644.78;4484465;31;20096;-87
2023/09/24 01:34:12;;;;;;;8.43;6.32;;;;;;;14.66;100.00;98663.25;4484399;31;20108;-86
2023/09/24 01:36:43;;;;;;;8.18;5.50;;;;;;;14.79;100.00;98662.72;4484537;31;20083;-87
2023/09/24 01:39:15;;;;;;;9.77;6.10;;;;;;;14.73;100.00;98661.56;4484420;31;20109;-87
2023/09/24 01:41:43;;;;;;;8.93;5.93;;;;;;;14.76;100.00;98663.06;4484456;31;20111;-87
2023/09/24 01:44:13;;;;;;;7.43;5.43;;;;;;;14.73;100.00;98665.03;4483789;31;20173;-86
2023/09/24 01:46:40;;;;;;;8.77;5.57;;;;;;;14.68;100.00;98658.63;4484243;31;20104;-87
2023/09/24 01:49:10;;;;;;;9.70;5.82;;;;;;;14.79;100.00;98654.81;4484710;31;20112;-87
2023/09/24 01:51:38;;;;;;;9.48;5.95;;;;;;;14.66;100.00;98645.59;4484335;31;20378;-88
2023/09/24 01:54:06;;;;;;;7.78;5.93;;;;;;;14.76;100.00;98652.50;4473223;31;20101;-87
2023/09/24 01:56:35;;;;;;;7.95;6.18;;;;;;;14.77;100.00;98654.16;4468759;32;20104;-87
2023/09/24 01:59:06;;;;;;;8.98;6.32;;;;;;;14.87;100.00;98662.72;4468683;32;20507;-87
2023/09/24 02:01:35;;;;;;;9.25;5.97;;;;;;;14.86;100.00;98672.44;4468493;32;20097;-87
2023/09/24 02:04:03;;;;;;;8.15;5.40;;;;;;;14.91;100.00;98658.75;4468451;32;20086;-88
2023/09/24 02:06:34;;;;;;;10.95;5.90;;;;;;;14.86;100.00;98661.88;4468363;32;20451;-88
2023/09/24 02:09:02;;;;;;;9.65;5.55;;;;;;;14.90;100.00;98667.66;4468227;32;20111;-88
2023/09/24 02:11:30;;;;;;;12.40;5.80;;;;;;;14.80;100.00;98659.91;4468316;32;20155;-88
2023/09/24 02:13:58;;;;;;;6.55;5.65;;;;;;;14.71;100.00;98668.81;4468222;32;20143;-87
2023/09/24 02:16:29;;;;;;;8.05;5.62;;;;;;;14.85;100.00;98670.81;4479812;32;20139;-88
2023/09/24 02:19:00;;;;;;;7.53;5.60;;;;;;;14.94;100.00;98663.69;4483870;31;20102;-88
2023/09/24 02:21:29;;;;;;;7.68;5.60;;;;;;;14.88;100.00;98664.34;4484090;31;20068;-88
2023/09/24 02:23:59;;;;;;;7.35;5.78;;;;;;;14.82;100.00;98643.91;4483737;31;20135;-87
2023/09/24 02:26:27;;;;;;;7.60;4.97;;;;;;;14.89;100.00;98642.28;4483653;32;20614;-88
2023/09/24 02:28:54;;;;;;;9.63;5.87;;;;;;;14.86;100.00;98642.59;4483940;31;20096;-87
2023/09/24 02:31:23;;;;;;;8.63;6.05;;;;;;;14.78;100.00;98640.00;4483392;31;20130;-88
2023/09/24 02:33:50;;;;;;;7.95;6.30;;;;;;;14.82;100.00;98646.56;4483755;32;20154;-88
2023/09/24 02:36:18;;;;;;;9.13;6.15;;;;;;;14.88;100.00;98649.38;4484102;31;20092;-88
2023/09/24 02:38:46;;;;;;;12.60;6.00;;;;;;;14.95;100.00;98654.78;4483529;31;20454;-88
2023/09/24 02:41:14;;;;;;;10.73;7.12;;;;;;;14.78;100.00;98658.44;4483620;31;20171;-88
2023/09/24 02:43:42;;;;;;;8.35;5.65;;;;;;;14.83;100.00;98662.22;4483622;31;20097;-87
2023/09/24 02:46:09;;;;;;;10.35;6.53;;;;;;;14.94;100.00;98668.94;4483439;31;20100;-88
2023/09/24 02:48:39;;;;;;;10.73;6.00;;;;;;;14.92;100.00;98676.22;4483561;31;20104;-87
2023/09/24 02:51:08;;;;;;;8.80;6.40;;;;;;;14.97;100.00;98673.91;4483506;31;20111;-87
2023/09/24 02:53:37;;;;;;;9.77;6.12;;;;;;;15.01;100.00;98683.13;4475441;31;20104;-88
2023/09/24 02:56:05;;;;;;;8.07;5.95;;;;;;;14.89;100.00;98681.84;4469235;32;20105;-88
2023/09/24 02:58:33;;;;;;;8.65;5.95;;;;;;;14.88;100.00;98673.09;4470310;32;20602;-88
2023/09/24 03:01:02;;;;;;;8.85;6.30;;;;;;;14.87;100.00;98668.00;4470099;32;20586;-88
2023/09/24 03:03:30;;;;;;;8.50;6.03;;;;;;;14.77;100.00;98652.34;4469998;32;20124;-88
2023/09/24 03:05:57;;;;;;;8.40;5.07;;;;;;;14.82;100.00;98649.19;4470325;32;20446;-88
2023/09/24 03:08:26;;;;;;;8.68;6.07;;;;;;;14.75;100.00;98637.66;4470378;32;20097;-87
2023/09/24 03:10:54;;;;;;;9.65;5.47;;;;;;;14.68;100.00;98633.06;4470055;32;20107;-88
2023/09/24 03:13:21;;;;;;;8.48;6.40;;;;;;;14.75;100.00;98627.97;4470087;32;20473;-88
2023/09/24 03:15:49;;;;;;;9.60;6.97;;;;;;;14.80;100.00;98619.53;4477061;32;20556;-87
2023/09/24 03:18:16;;;;;;;11.98;6.53;;;;;;;14.69;100.00;98613.63;4485547;31;20115;-87
2023/09/24 03:20:44;;;;;;;9.40;6.55;;;;;;;14.62;100.00;98610.00;4485606;31;20096;-87
2023/09/24 03:23:12;;;;;;;9.35;6.70;;;;;;;14.65;100.00;98612.31;4485538;31;20123;-87
2023/09/24 03:25:40;;;;;;;9.30;6.85;;;;;;;14.68;100.00;98608.50;4485463;31;20161;-88
2023/09/24 03:28:07;;;;;;;9.25;6.25;;;;;;;14.71;100.00;98614.25;4485389;31;20111;-88
2023/09/24 03:30:35;;;;;;;8.32;6.45;;;;;;;14.75;100.00;98619.19;4485493;31;20104;-88
2023/09/24 03:33:03;;;;;;;10.38;6.60;;;;;;;14.69;100.00;98632.06;4484144;32;20127;-87
2023/09/24 03:35:31;;;;;;;10.95;6.20;;;;;;;14.75;100.00;98635.88;4485371;31;20100;-88
2023/09/24 03:37:59;;;;;;;9.65;6.90;;;;;;;14.80;100.00;98636.19;4485431;31;20093;-87
2023/09/24 03:40:27;;;;;;;9.20;6.90;;;;;;;14.73;100.00;98635.19;4485538;31;20079;-87
2023/09/24 03:42:55;;;;;;;12.63;7.30;;;;;;;14.58;100.00;98635.03;4485331;31;20100;-87
2023/09/24 03:45:23;;;;;;;11.10;7.15;;;;;;;14.60;100.00;98625.12;4485718;31;20484;-87
2023/09/24 03:47:53;;;;;;;9.23;7.07;;;;;;;14.65;100.00;98633.38;4485409;31;20080;-88
2023/09/24 03:50:21;;;;;;;12.10;7.78;;;;;;;14.61;100.00;98634.75;4485642;31;20095;-87
2023/09/24 03:52:50;;;;;;;12.30;8.18;;;;;;;14.63;100.00;98645.94;4482220;31;20174;-87
2023/09/24 03:55:19;;;;;;;12.52;8.38;;;;;;;14.74;100.00;98650.03;4469980;32;20139;-87
2023/09/24 03:57:47;;;;;;;9.32;7.05;;;;;;;14.70;100.00;98654.81;4469519;32;20111;-87
2023/09/24 04:00:18;;;;;;;9.63;7.30;;;;;;;14.76;100.00;98650.72;4469635;32;20107;-87
2023/09/24 04:02:49;;;;;;;12.05;7.40;;;;;;;14.82;100.00;98654.47;4469926;32;20081;-87
2023/09/24 04:05:21;;;;;;;10.90;7.95;;;;;;;14.88;100.00;98652.00;4469627;32;20126;-88
2023/09/24 04:07:52;;;;;;;9.60;7.20;;;;;;;14.83;100.00;98642.94;4469601;32;20100;-88
2023/09/24 04:10:22;;;;;;;10.75;7.37;;;;;;;14.68;100.00;98648.88;4469543;32;20099;-88
2023/09/24 04:12:50;;;;;;;9.68;7.32;;;;;;;14.68;100.00;98654.16;4469259;32;20393;-88
2023/09/24 04:15:21;;;;;;;9.77;7.22;;;;;;;14.68;100.00;98653.34;4473284;32;20179;-88
2023/09/24 04:17:50;;;;;;;9.32;7.05;;;;;;;14.63;100.00;98666.22;4485146;31;20485;-88
2023/09/24 04:20:20;;;;;;;9.80;7.05;;;;;;;14.65;100.00;98670.31;4485442;31;20492;-87
2023/09/24 04:22:49;;;;;;;9.20;6.50;;;;;;;14.67;100.00;98670.13;4485077;31;20092;-88
2023/09/24 04:25:20;;;;;;;10.50;7.43;;;;;;;14.73;100.00;98665.03;4485218;31;20099;-87
2023/09/24 04:27:48;;;;;;;9.73;7.10;;;;;;;14.61;100.00;98671.66;4485158;31;20397;-88
2023/09/24 04:30:17;;;;;;;9.50;6.85;;;;;;;14.62;100.00;98662.72;4485362;31;20104;-88
2023/09/24 04:32:47;;;;;;;11.52;7.03;;;;;;;14.80;100.00;98662.56;4485120;31;20120;-88
2023/09/24 04:35:19;;;;;;;9.50;7.12;;;;;;;14.75;100.00;98664.88;4485450;31;20117;-89
2023/09/24 04:37:47;;;;;;;8.32;6.43;;;;;;;14.73;100.00;98670.31;4485059;31;20155;-89
2023/09/24 04:40:15;;;;;;;9.88;6.35;;;;;;;14.78;100.00;98676.91;4485106;31;20093;-89
2023/09/24 04:42:47;;;;;;;7.35;5.82;;;;;;;14.72;100.00;98681.84;4485123;31;20122;-89
2023/09/24 04:45:17;;;;;;;8.35;6.47;;;;;;;14.82;100.00;98678.22;4485137;31;20446;-87
2023/09/24 04:47:46;;;;;;;8.23;6.20;;;;;;;14.83;100.00;98690.41;4485003;31;20148;-87
2023/09/24 04:50:14;;;;;;;6.32;5.40;;;;;;;14.82;100.00;98686.12;4485001;31;20123;-87
2023/09/24 04:52:44;;;;;;;6.95;4.85;;;;;;;14.80;100.00;98688.09;4482691;31;20101;-86
2023/09/24 04:55:13;;;;;;;6.60;4.97;;;;;;;14.72;100.00;98676.56;4469324;32;20157;-86
2023/09/24 04:57:45;;;;;;;7.25;5.53;;;;;;;14.76;100.00;98681.50;4469114;32;20429;-85
2023/09/24 05:00:15;;;;;;;8.10;5.65;;;;;;;14.83;100.00;98674.59;4467879;32;20215;-85
2023/09/24 05:02:43;;;;;;;7.45;5.30;;;;;;;14.78;100.00;98671.62;4468979;32;20719;-85
2023/09/24 05:05:10;;;;;;;9.82;4.97;;;;;;;14.78;100.00;98669.00;4467962;32;20100;-86
2023/09/24 05:07:38;;;;;;;8.13;4.82;;;;;;;14.83;100.00;98672.75;4469018;32;20085;-85
2023/09/24 05:10:08;;;;;;;5.30;3.90;;;;;;;14.94;100.00;98671.59;4468996;32;20153;-85
2023/09/24 05:12:35;;;;;;;5.82;3.90;;;;;;;14.95;100.00;98664.53;4469446;32;20113;-85
2023/09/24 05:15:04;;;;;;;6.95;3.60;;;;;;;14.99;100.00;98661.38;4471453;32;20452;-84
2023/09/24 05:17:35;;;;;;;4.70;3.53;;;;;;;14.97;100.00;98679.16;4483903;31;20097;-85
2023/09/24 05:20:04;;;;;;;5.32;3.72;;;;;;;15.06;100.00;98678.19;4484822;31;20080;-85
2023/09/24 05:22:31;;;;;;;5.68;4.10;;;;;;;15.11;100.00;98680.31;4484689;31;20096;-84
2023/09/24 05:24:58;;;;;;;4.10;2.90;;;;;;;15.01;100.00;98683.13;4484748;32;20112;-84
2023/09/24 05:27:29;;;;;;;4.50;3.58;;;;;;;15.11;100.00;98682.97;4484262;31;20088;-84
2023/09/24 05:29:56;;;;;;;4.85;3.33;;;;;;;15.12;100.00;98686.41;4484696;31;20136;-84
2023/09/24 05:32:24;;;;;;;4.20;3.40;;;;;;;15.15;100.00;98691.34;4484454;31;20433;-84
2023/09/24 05:34:52;;;;;;;5.20;3.20;;;;;;;15.25;100.00;98700.72;4478121;31;198909;-84
2023/09/24 05:37:20;;;;;;;5.03;3.50;;;;;;;15.24;100.00;98704.34;4484613;31;20093;-84
2023/09/24 05:39:48;;;;;;;3.67;2.60;;;;;;;15.20;100.00;98705.69;4484415;31;20115;-83
2023/09/24 05:42:16;;;;;;;4.20;3.00;;;;;;;15.34;100.00;98704.16;4484433;31;20154;-83
2023/09/24 05:44:43;;;;;;;6.15;3.12;;;;;;;15.34;100.00;98706.81;4484314;31;20438;-83
2023/09/24 05:47:11;;;;;;;4.62;2.83;;;;;;;15.43;100.00;98711.06;4484270;31;20502;-84
2023/09/24 05:49:40;;;;;;;3.50;2.72;;;;;;;15.53;100.00;98710.84;4484369;32;20428;-84
2023/09/24 05:52:12;;;;;;;3.92;2.72;;;;;;;15.67;100.00;98721.72;4482877;32;20171;-83
2023/09/24 05:54:41;;;;;;;5.10;2.85;;;;;;;15.61;100.00;98723.25;4469250;32;20149;-83
2023/09/24 05:57:08;;;;;;;3.95;2.55;;;;;;;15.61;100.00;98726.69;4468678;32;20111;-83
2023/09/24 05:59:35;;;;;;;4.62;2.83;;;;;;;15.44;100.00;98733.84;4468634;32;20085;-83
2023/09/24 06:02:03;;;;;;;5.80;2.33;;;;;;;15.44;100.00;98733.84;4468506;32;20135;-83
2023/09/24 06:04:30;;;;;;;3.05;2.55;;;;;;;15.45;100.00;98737.28;4468270;32;20100;-83
2023/09/24 06:06:58;;;;;;;4.65;2.53;;;;;;;15.49;100.00;98743.06;4468552;32;20434;-82
2023/09/24 06:09:30;;;;;;;4.70;2.12;;;;;;;15.55;100.00;98745.03;4468373;32;20157;-82
2023/09/24 06:11:57;;;;;;;2.70;1.85;;;;;;;15.59;100.00;98748.97;4468396;32;20116;-83
2023/09/24 06:14:25;;;;;;;3.10;2.20;;;;;;;15.60;100.00;98748.81;4468301;32;20160;-83
2023/09/24 06:16:52;;;;;;;2.92;2.17;;;;;;;15.72;100.00;98759.81;4481922;32;20129;-83
2023/09/24 06:19:21;;;;;;;2.35;2.00;;;;;;;15.66;100.00;98762.34;4483834;32;20084;-83
2023/09/24 06:21:50;;;;;;;2.95;2.00;;;;;;;15.71;100.00;98763.44;4484163;31;20128;-83
2023/09/24 06:24:17;;;;;;;2.78;1.62;;;;;;;15.79;100.00;98763.47;4482410;32;20370;-83
2023/09/24 06:26:45;;;;;;;2.12;1.70;;;;;;;15.67;100.00;98767.44;4483701;31;20085;-82
2023/09/24 06:29:14;;;;;;;2.45;1.90;;;;;;;15.78;100.00;98761.81;4484620;31;20137;-83
2023/09/24 06:31:41;;;;;;;2.62;2.00;;;;;;;15.83;100.00;98771.06;4485746;31;20104;-82
2023/09/24 06:34:09;;;;;;;2.75;1.65;;;;;;;15.82;100.00;98770.25;4485691;31;20100;-82
2023/09/24 06:36:37;;;;;;;4.45;1.90;;;;;;;15.91;100.00;98776.28;4485977;31;20092;-82
2023/09/24 06:39:10;;;;;;;2.20;1.90;;;;;;;15.99;100.00;98772.78;4485863;31;20148;-82
2023/09/24 06:41:38;;;;;;;3.33;2.28;;;;;;;16.04;100.00;98776.56;4485711;31;20394;-82
2023/09/24 06:44:05;;;;;;;2.92;2.20;;;;;;;16.05;100.00;98782.66;4485762;31;20148;-82
2023/09/24 06:46:33;;;;;;;3.72;2.30;;;;;;;16.11;100.00;98793.41;4485668;31;20088;-82
2023/09/24 06:49:00;;;;;;;2.10;1.77;;;;;;;16.23;100.00;98790.34;4485783;32;20112;-82
2023/09/24 06:51:27;;;;;;;3.47;2.00;;;;;;;16.29;100.00;98795.78;4485922;31;20107;-82
2023/09/24 06:53:55;;;;;;;2.58;1.83;;;;;;;16.34;100.00;98797.09;4475419;31;20164;-81
2023/09/24 06:56:23;;;;;;;2.58;2.05;;;;;;;16.43;100.00;98806.63;4470082;32;20161;-81
2023/09/24 06:58:50;;;;;;;5.12;2.03;;;;;;;16.32;100.00;98803.38;4469987;32;20418;-81
2023/09/24 07:01:18;;;;;;;3.03;2.42;;;;;;;16.30;100.00;98808.00;4470045;32;20128;-82
2023/09/24 07:03:47;;;;;;;3.33;2.42;;;;;;;16.37;100.00;98810.78;4469997;32;20533;-82
2023/09/24 07:06:16;;;;;;;4.07;2.47;;;;;;;16.45;100.00;98812.56;4469839;32;20441;-82
2023/09/24 07:08:44;;;;;;;3.35;2.03;;;;;;;16.52;100.00;98816.16;4469794;32;20089;-82
2023/09/24 07:11:33;;;;;;;2.35;2.10;;;;;;;16.65;100.00;98815.56;4470086;32;20153;-82
2023/09/24 07:14:01;;;;;;;3.67;2.50;;;;;;;16.70;100.00;98818.53;4469906;32;20157;-82
2023/09/24 07:16:29;;;;;;;5.40;2.20;;;;;;;16.72;100.00;98821.00;4481147;32;20096;-81
2023/09/24 07:18:57;;;;;;;3.53;2.20;;;;;;;16.62;100.00;98819.41;4485416;32;20088;-81
2023/09/24 07:21:26;;;;;;;3.62;2.55;;;;;;;16.56;100.00;98821.91;4485612;31;20457;-81
2023/09/24 07:24:04;;;;;;;3.80;2.12;;;;;;;16.62;100.00;98826.50;4485594;31;20092;-81
2023/09/24 07:26:31;;;;;;;2.28;2.00;;;;;;;16.51;100.00;98827.72;4485790;31;20092;-81
2023/09/24 07:29:00;;;;;;;3.97;1.73;;;;;;;16.56;100.00;98828.00;4485393;31;20165;-81
2023/09/24 07:31:28;;;;;;;1.90;1.58;;;;;;;16.73;100.00;98828.75;4485556;31;20573;-81
2023/09/24 07:33:59;;;;;;;1.80;1.48;;;;;;;16.80;100.00;98828.88;4485396;31;20771;-81
2023/09/24 07:36:32;;;;;;;2.00;1.23;;;;;;;16.80;100.00;98829.69;4485616;31;20111;-81
2023/09/24 07:39:18;;;;;;;2.33;1.55;;;;;;;16.73;100.00;98834.06;4485425;31;20085;-81
2023/09/24 07:41:46;;;;;;;2.25;1.70;;;;;;;16.80;100.00;98834.16;4484873;31;20158;-81
2023/09/24 07:44:13;;;;;;;3.72;1.52;;;;;;;16.74;100.00;98833.03;4485435;31;20115;-81
2023/09/24 07:46:40;;;;;;;5.28;2.10;;;;;;;16.73;100.00;98828.75;4485367;31;20076;-81
2023/09/24 07:49:08;;;;;;;6.00;2.75;;;;;;;16.67;100.00;98832.12;4485573;31;20104;-81
2023/09/24 07:51:35;;;;;;;4.57;2.25;;;;;;;16.60;100.00;98837.25;4485409;31;20429;-81
2023/09/24 07:54:02;;;;;;;1.45;1.00;;;;;;;16.67;100.00;98840.03;4474541;31;20108;-81
2023/09/24 07:56:31;;;;;;;0.65;0.50;;;;;;;16.62;100.00;98839.72;4469538;32;20556;-81
2023/09/24 07:58:58;;;;;;;1.52;0.68;;;;;;;16.53;100.00;98846.06;4469691;32;20115;-81
2023/09/24 08:01:26;;;;;;;2.00;0.40;;;;;;;16.48;100.00;98846.59;4469840;32;20101;-81
2023/09/24 08:03:56;;;;;;;1.20;0.60;;;;;;;16.42;100.00;98842.00;4469583;32;20084;-81
2023/09/24 08:06:27;;;;;;;0.45;0.30;;;;;;;16.23;100.00;98845.88;4469528;32;20101;-81
2023/09/24 08:08:56;;;;;;;2.15;0.30;;;;;;;16.04;100.00;98855.84;4469466;32;20081;-82
2023/09/24 08:11:39;;;;;;;1.73;0.70;;;;;;;16.25;100.00;98857.09;4469967;32;20107;-82
2023/09/24 08:14:07;;;;;;;1.02;0.32;;;;;;;16.28;100.00;98852.28;4469503;32;20088;-82
2023/09/24 08:16:35;;;;;;;0.52;0.40;;;;;;;16.19;100.00;98848.03;4481578;32;20145;-81
2023/09/24 08:19:03;;;;;;;2.45;0.62;;;;;;;16.28;100.00;98851.47;4485472;31;20161;-82
2023/09/24 08:21:31;;;;;;;1.60;0.80;;;;;;;16.21;100.00;98853.16;4485133;31;20101;-82
2023/09/24 08:23:59;;;;;;;0.93;0.73;;;;;;;16.28;100.00;98857.56;4485546;31;20449;-82
2023/09/24 08:26:27;;;;;;;2.60;1.73;;;;;;;16.09;100.00;98852.69;4485107;31;20088;-82
2023/09/24 08:28:55;;;;;;;1.08;0.90;;;;;;;16.00;100.00;98853.72;4485288;31;20108;-81
2023/09/24 08:31:25;;;;;;;1.20;1.00;;;;;;;15.94;100.00;98849.94;4485146;31;20096;-81
2023/09/24 08:33:53;;;;;;;2.03;0.70;;;;;;;15.87;100.00;98848.97;4485083;31;20099;-79
2023/09/24 08:36:21;;;;;;;2.42;0.95;;;;;;;15.89;100.00;98854.91;4485150;31;20390;-80
2023/09/24 08:38:49;;;;;;;1.27;1.00;;;;;;;15.89;100.00;98857.56;4484968;31;20096;-80
2023/09/24 08:41:18;;;;;;;1.52;1.08;;;;;;;15.86;100.00;98856.06;4485018;32;20120;-80
2023/09/24 08:43:46;;;;;;;3.47;1.45;;;;;;;15.68;100.00;98850.94;4485169;32;20486;-80
2023/09/24 08:46:16;;;;;;;4.50;1.33;;;;;;;15.83;100.00;98863.50;4484879;31;20152;-80
2023/09/24 08:48:43;;;;;;;2.50;1.15;;;;;;;15.57;100.00;98861.88;4484942;31;20162;-80
2023/09/24 08:51:11;;;;;;;1.35;0.98;;;;;;;15.51;100.00;98863.34;4485048;31;20100;-80
2023/09/24 08:53:39;;;;;;;1.45;1.05;;;;;;;15.58;100.00;98860.88;4474285;32;20116;-80
2023/09/24 08:56:07;;;;;;;1.25;1.02;;;;;;;15.68;100.00;98866.78;4469125;32;20156;-80
2023/09/24 08:58:39;;;;;;;1.40;1.02;;;;;;;15.58;100.00;98861.72;4469719;32;20119;-80
2023/09/24 09:01:10;;;;;;;1.75;1.30;;;;;;;15.64;100.00;98864.66;4469231;32;20101;-80
2023/09/24 09:03:40;;;;;;;1.52;1.02;;;;;;;15.66;100.00;98870.63;4469320;32;20529;-80
2023/09/24 09:06:08;;;;;;;4.97;1.15;;;;;;;15.79;100.00;98869.12;4468921;32;20104;-80
2023/09/24 09:08:52;;;;;;;1.42;1.17;;;;;;;15.78;100.00;98872.75;4469299;32;20097;-80
2023/09/24 09:11:21;;;;;;;1.10;1.00;;;;;;;15.75;100.00;98878.34;4469049;32;20158;-80
2023/09/24 09:13:49;;;;;;;1.80;1.40;;;;;;;15.88;100.00;98877.03;4467867;32;20173;-80
2023/09/24 09:16:20;;;;;;;1.67;1.00;;;;;;;15.91;100.00;98874.03;4479014;32;20139;-80
2023/09/24 09:19:00;;;;;;;1.10;1.00;;;;;;;15.64;100.00;98877.84;4485229;32;20089;-80
2023/09/24 09:21:28;;;;;;;1.85;1.20;;;;;;;15.60;100.00;98880.84;4484767;31;20438;-80
2023/09/24 09:23:56;;;;;;;1.35;1.20;;;;;;;15.73;100.00;98884.78;4484879;32;20115;-80
2023/09/24 09:26:28;;;;;;;1.40;0.95;;;;;;;15.83;100.00;98890.75;4484540;31;20454;-80
2023/09/24 09:28:56;;;;;;;1.27;0.98;;;;;;;15.86;100.00;98890.41;4484669;31;20073;-80
2023/09/24 09:31:23;;;;;;;2.17;1.17;;;;;;;15.75;100.00;98893.38;4484413;31;20104;-79
2023/09/24 09:33:50;;;;;;;2.12;0.95;;;;;;;15.88;100.00;98898.16;4484624;31;20155;-79
2023/09/24 09:36:23;;;;;;;1.95;1.08;;;;;;;15.75;100.00;98896.03;4484618;31;20486;-79
2023/09/24 09:38:51;;;;;;;2.78;1.25;;;;;;;15.63;100.00;98903.47;4484610;31;20430;-79
2023/09/24 09:41:20;;;;;;;6.22;1.30;;;;;;;15.59;100.00;98910.06;4484645;31;20108;-79
2023/09/24 09:43:48;;;;;;;1.20;0.90;;;;;;;15.80;100.00;98914.84;4484787;31;20370;-79
2023/09/24 09:46:20;;;;;;;1.33;1.05;;;;;;;15.79;100.00;98921.97;4484527;31;20165;-79
2023/09/24 09:48:54;;;;;;;0.90;0.80;;;;;;;15.72;100.00;98918.31;4484420;31;20081;-78
2023/09/24 09:51:24;;;;;;;1.05;0.90;;;;;;;15.85;100.00;98919.63;4484504;31;20119;-78
2023/09/24 09:54:08;;;;;;;1.10;1.00;;;;;;;15.97;100.00;98913.00;4474550;31;20108;-78
2023/09/24 09:56:36;;;;;;;1.87;0.70;;;;;;;16.12;100.00;98924.56;4468611;32;20533;-78
2023/09/24 09:59:06;;;;;;;1.35;0.90;;;;;;;16.09;100.00;98929.34;4468527;32;20429;-78
2023/09/24 10:01:35;;;;;;;1.95;1.00;;;;;;;15.99;100.00;98926.87;4468406;32;20169;-78
2023/09/24 10:04:05;;;;;;;1.35;0.95;;;;;;;16.10;100.00;98926.53;4469012;32;20149;-78
2023/09/24 10:06:34;;;;;;;4.65;0.82;;;;;;;16.36;100.00;98933.37;4470186;32;20123;-78
2023/09/24 10:09:29;;;;;;;1.15;0.98;;;;;;;16.16;100.00;98935.59;4470381;32;20085;-78
2023/09/24 10:11:57;;;;;;;2.20;0.80;;;;;;;16.26;100.00;98938.03;4470166;32;20144;-78
2023/09/24 10:14:37;;;;;;;3.17;1.00;;;;;;;16.20;100.00;98939.56;4470423;32;20156;-78
2023/09/24 10:17:16;;;;;;;3.72;1.10;;;;;;;16.16;100.00;98932.97;4485386;32;20093;-78
2023/09/24 10:19:49;;;;;;;3.70;0.90;;;;;;;16.18;100.00;98930.97;4486199;32;20080;-78
2023/09/24 10:22:26;;;;;;;1.48;0.93;;;;;;;16.26;100.00;98932.75;4486265;31;20111;-78
2023/09/24 10:24:54;;;;;;;1.85;0.90;;;;;;;16.37;100.00;98919.19;4486014;31;20096;-78
2023/09/24 10:27:31;;;;;;;2.55;0.95;;;;;;;16.23;100.00;98933.09;4485708;31;20242;-78
2023/09/24 10:30:00;;;;;;;2.78;0.90;;;;;;;16.16;100.00;98940.87;4485936;31;20106;-78
2023/09/24 10:32:29;;;;;;;1.50;0.70;;;;;;;16.11;100.00;98941.41;4486146;31;20112;-78
2023/09/24 10:35:02;;;;;;;0.75;0.62;;;;;;;16.13;100.00;98938.59;4486160;31;20080;-78
2023/09/24 10:37:33;;;;;;;2.12;0.95;;;;;;;15.93;100.00;98943.41;4485971;31;20435;-78
2023/09/24 10:40:09;;;;;;;1.85;1.10;;;;;;;15.99;100.00;98939.25;4485946;31;20080;-78
2023/09/24 10:42:39;;;;;;;1.55;0.95;;;;;;;16.12;100.00;98940.41;4485849;32;20111;-78
2023/09/24 10:45:06;;;;;;;1.35;0.82;;;;;;;16.29;100.00;98943.00;4486210;31;20093;-78
2023/09/24 10:47:43;;;;;;;1.15;0.88;;;;;;;16.12;100.00;98942.22;4485730;31;20088;-78
2023/09/24 10:50:12;;;;;;;1.30;0.80;;;;;;;16.22;100.00;98952.62;4485979;31;20080;-78
2023/09/24 10:52:58;;;;;;;1.75;1.25;;;;;;;16.26;100.00;98953.91;4483823;31;20166;-78
2023/09/24 10:57:56;;;;;;;1.48;1.10;;;;;;;16.18;100.00;98948.66;4470081;32;20092;-78
2023/09/24 11:00:26;;;;;;;1.15;1.02;;;;;;;16.11;100.00;98949.31;4470292;32;20165;-78
2023/09/24 11:03:04;;;;;;;0.70;0.70;;;;;;;16.14;100.00;98942.88;4469942;32;20084;-78
2023/09/24 11:05:36;;;;;;;2.05;0.80;;;;;;;15.95;100.00;98946.72;4470234;32;20088;-78
2023/09/24 11:08:09;;;;;;;1.23;0.80;;;;;;;16.14;100.00;98950.81;4469716;32;20092;-78
2023/09/24 11:10:37;;;;;;;1.48;0.62;;;;;;;15.90;100.00;98946.41;4470031;32;20572;-78
2023/09/24 11:13:07;;;;;;;4.75;1.08;;;;;;;15.93;100.00;98954.81;4469938;32;20089;-78
2023/09/24 11:15:37;;;;;;;1.67;0.80;;;;;;;16.09;100.00;98946.03;4474736;32;20546;-78
2023/09/24 11:18:06;;;;;;;2.05;0.62;;;;;;;16.08;100.00;98949.66;4485486;31;20406;-78
2023/09/24 11:20:35;;;;;;;1.73;0.65;;;;;;;16.12;100.00;98958.06;4485713;31;20119;-78
2023/09/24 11:23:05;;;;;;;1.35;0.93;;;;;;;15.97;100.00;98947.34;4485492;31;20096;-78
2023/09/24 11:25:33;;;;;;;2.97;0.60;;;;;;;16.07;100.00;98945.34;4485545;31;20088;-78
2023/09/24 11:28:04;;;;;;;0.60;0.60;;;;;;;16.05;100.00;98947.34;4484206;32;20092;-78
2023/09/24 11:30:49;;;;;;;2.83;1.55;;;;;;;15.82;100.00;98956.94;4485469;31;20100;-79
2023/09/24 11:33:20;;;;;;;1.85;1.75;;;;;;;15.84;100.00;98969.00;4485486;31;20115;-79
2023/09/24 11:35:50;;;;;;;2.60;1.67;;;;;;;15.90;100.00;98978.91;4483969;32;20096;-79